ADDS METAR Data INFO
IDs: Format: Raw Decoded Include TAF

Data at: 0218 UTC 18 Jan 2018

PASO 180212Z AUTO 00000KT 10SM SCT015 SCT036 OVC043 03/03 A2935 RMK AO2 RAB0157E07 P0000 T00280028 TSNO
PASO 180153Z AUTO 00000KT 10SM BKN015 BKN027 OVC037 03/03 A2934 RMK AO2 RAE45 SLP937 P0000 T00280028 TSNO
PASO 180053Z AUTO 00000KT 7SM -RA FEW018 FEW026 OVC034 03/03 A2933 RMK AO2 RAB2355E11B30 SLP931 P0001 T00330033 TSNO
PASO 180035Z AUTO 18003KT 10SM -RA SCT016 OVC034 04/03 A2932 RMK AO2 RAB2355E11B30 P0000 T00390033 TSNO
PASO 172353Z AUTO 18003KT 10SM OVC020 04/02 A2931 RMK AO2 RAB06E16 SLP925 P0000 60000 T00440022 10050 20011 53012 TSNO
PASO 172307Z AUTO VRB04KT 10SM -RA BKN020 BKN027 OVC043 04/03 A2930 RMK AO2 RAB06 P0000 T00440033 TSNO
PASO 172253Z AUTO VRB04KT 10SM FEW017 SCT023 OVC042 04/03 A2929 RMK AO2 SLP919 T00440033 TSNO
PASO 172153Z AUTO 00000KT 10SM BKN040 04/04 A2929 RMK AO2 SLP918 T00440044 TSNO
PASO 172053Z AUTO 00000KT 10SM OVC039 04/04 A2928 RMK AO2 SLP914 60000 T00390039 51020 TSNO
PASO 172005Z AUTO 00000KT 9SM OVC045 03/03 A2926 RMK AO2 T00280028 TSNO
PASO 171953Z AUTO 00000KT 2 1/2SM BR FEW040 OVC050 02/02 A2926 RMK AO2 RAE20 SLP909 P0000 T00220022 TSNO
PASO 171853Z AUTO 21003KT 5SM -RA BR BKN060 02/02 A2924 RMK AO2 RAE16B48UPB44E48 SLP902 P0000 T00170017 TSNO
PASO 171753Z AUTO 00000KT 6SM -RA BR OVC044 02/02 A2922 RMK AO2 RAB36 SLP894 P0000 60003 T00170017 10039 20011 53019 TSNO
PASO 171653Z AUTO 00000KT 10SM SCT055 BKN070 OVC090 01/01 A2919 RMK AO2 RAE03B19E20B28E38UPB1554E1557B20E47 SLP886 P0001 T00110011 TSNO
PASO 171553Z AUTO 00000KT 9SM -RA OVC050 02/02 A2918 RMK AO2 RAE20B53UPB18E19B37E45 SLP880 P0000 T00220022 TSNO
PASO 171453Z AUTO 20003KT 10SM -RA OVC046 03/03 A2916 RMK AO2 UPB27E34 SLP875 P0001 60002 T00280028 53012 TSNO
PASO 171353Z AUTO 00000KT 10SM -RA OVC048 02/02 A2914 RMK AO2 RAE1254B13UPB34E36 SLP869 P0000 T00220022 TSNO
PASO 171253Z AUTO 00000KT 10SM -RA OVC045 02/02 A2914 RMK AO2 SLP867 P0001 T00220022 TSNO
PASO 171153Z AUTO 05007KT 020V080 10SM -RA BKN047 OVC055 04/03 A2913 RMK AO2 SLP863 P0000 60053 70120 T00390028 10044 20033 53011 TSNO
PASO 171053Z AUTO 02008KT 10SM -RA FEW017 FEW026 OVC042 04/03 A2912 RMK AO2 SLP861 P0001 T00390028 TSNO
PASO 170953Z AUTO 03007KT 10SM -RA OVC032 04/03 A2910 RMK AO2 SLP854 P0006 T00390028 TSNO
PASO 170932Z AUTO 02008KT 9SM -RA OVC030 04/03 A2910 RMK AO2 P0004 T00390028 TSNO
PASO 170853Z AUTO 02009KT 4SM RA BR OVC023 04/03 A2909 RMK AO2 SLP852 P0015 60046 T00390028 400441011 53007 TSNO
PASO 170753Z AUTO 03011G15KT 4SM +RA BR OVC022 04/03 A2908 RMK AO2 SLP849 P0019 T00440028 TSNO
PASO 170653Z AUTO 01007KT 4SM RA BR OVC024 04/03 A2907 RMK AO2 SLP844 P0012 T00390033 TSNO
PASO 170553Z AUTO 01003KT 6SM -RA BR OVC029 04/03 A2907 RMK AO2 SLP845 P0006 60047 T00390033 10044 20017 53002 TSNO
PASO 170453Z AUTO 00000KT 5SM RA BR OVC027 03/03 A2907 RMK AO2 SLP844 P0007 T00330033 TSNO
PASO 170353Z AUTO 01004KT 6SM -RA BR OVC027 04/03 A2907 RMK AO2 SLP843 P0009 T00390033 TSNO
PASO 170253Z AUTO 02010KT 3SM +RA BR OVC025 04/03 A2907 RMK AO2 SLP844 P0013 60025 T00390028 55004 TSNO
PASO 170153Z AUTO 01003KT 5SM -RA BR OVC029 02/02 A2907 RMK AO2 SLP843 P0007 T00220022 TSNO
PASO 170132Z AUTO 00000KT 3SM -RA BR OVC029 02/02 A2907 RMK AO2 P0004 T00220022 TSNO
PASO 170118Z AUTO 00000KT 2 1/2SM -RA BR OVC029 02/02 A2906 RMK AO2 VIS 1 1/2V4 P0003 T00220022 TSNO
PASO 170053Z AUTO 00000KT 3SM -RA BR OVC030 02/02 A2907 RMK AO2 SLP844 P0005 T00170017 TSNO
PASO 170048Z AUTO 00000KT 4SM -RA BR OVC030 02/02 A2907 RMK AO2 P0005 TSNO
PASO 170035Z AUTO 00000KT 2SM -RA BR OVC029 02/02 A2907 RMK AO2 VIS 1 1/4V2 1/2 P0004 T00170017 TSNO
PASO 170012Z AUTO 00000KT 1 3/4SM -RA BR OVC032 02/02 A2908 RMK AO2 P0001 T00170017 TSNO
PASO 162353Z AUTO 00000KT 3SM -RA BR OVC036 02/02 A2908 RMK AO2 SLP848 P0002 60004 T00170017 10022 20000 58012 TSNO
PASO 162253Z AUTO 00000KT 4SM -RA BR BKN036 OVC047 02/02 A2909 RMK AO2 SLP852 P0002 T00170017 TSNO
PASO 162153Z AUTO 00000KT 10SM -RA BKN055 OVC065 01/01 A2911 RMK AO2 RAB23 SLP858 P0000 T00110011 TSNO
PASO 162053Z AUTO 00000KT 9SM FEW002 BKN060 01/01 A2912 RMK AO2 SLP860 T00110006 50005 TSNO
PASO 161953Z AUTO 00000KT 9SM FEW002 FEW050 00/00 A2912 RMK AO2 SLP862 T00000000 TSNO
PASO 161913Z AUTO 00000KT 10SM FEW002 SCT012 BKN055 00/00 A2912 RMK AO2 T00000000 TSNO
PASO 161859Z AUTO 00000KT 10SM FEW002 BKN012 BKN055 00/00 A2912 RMK AO2 T00000000 TSNO
PASO 161853Z AUTO 00000KT 10SM SCT012 BKN060 00/00 A2912 RMK AO2 SLP860 T00000000 TSNO
PASO 161753Z AUTO 00000KT 10SM OVC046 01/01 A2910 RMK AO2 RAE36 SLP855 P0000 60016 T00060006 10011 20006 56014 TSNO $
PASO 161653Z AUTO 00000KT 10SM -RA SCT024 OVC036 01/01 A2911 RMK AO2 SLP856 P0002 T00060006 TSNO $
PASO 161553Z AUTO VRB04KT 6SM -RA BR FEW012 SCT021 OVC025 01/01 A2912 RMK AO2 RAB36SNE36 SLP860 P0003 T00110006 TSNO $
PASO 161515Z AUTO 33003KT 4SM -SN BR BKN010 OVC017 01/01 A2913 RMK AO2 P0001 T00060006 TSNO $
PASO 161511Z AUTO 35004KT 2 1/2SM -SN BR SCT010 BKN017 OVC023 01/01 A2914 RMK AO2 P0001 T00060006 TSNO $
PASO 161453Z AUTO 35006KT 3SM -SN BR OVC021 01/00 A2914 RMK AO2 SLP869 P0006 60011 T00060000 56028 TSNO $
PASO 161435Z AUTO 36007KT 2 1/2SM -SN BR OVC021 01/00 A2915 RMK AO2 P0005 T00060000 TSNO $
PASO 161427Z AUTO 35008KT 3SM -SN BR OVC021 01/00 A2915 RMK AO2 P0004 T00060000 TSNO $